sensor_id;sensor_type;location;lat;lon;timestamp;temperature;humidity
10848;DHT22;5477;48.806;9.154;2024-01-27T00:01:41;2.80;99.90
10848;DHT22;5477;48.806;9.154;2024-01-27T00:04:09;2.70;99.90
10848;DHT22;5477;48.806;9.154;2024-01-27T00:06:37;2.70;99.90
10848;DHT22;5477;48.806;9.154;2024-01-27T00:09:06;2.60;99.90
10848;DHT22;5477;48.806;9.154;2024-01-27T00:11:34;2.60;99.90
10848;DHT22;5477;48.806;9.154;2024-01-27T00:14:02;2.50;99.90
10848;DHT22;5477;48.806;9.154;2024-01-27T00:16:30;2.50;99.90
10848;DHT22;5477;48.806;9.154;2024-01-27T00:18:59;2.40;99.90
10848;DHT22;5477;48.806;9.154;2024-01-27T00:21:27;2.30;99.90
10848;DHT22;5477;48.806;9.154;2024-01-27T00:23:56;2.30;99.90
10848;DHT22;5477;48.806;9.154;2024-01-27T00:26:28;2.30;99.90
10848;DHT22;5477;48.806;9.154;2024-01-27T00:28:56;2.20;99.90
10848;DHT22;5477;48.806;9.154;2024-01-27T00:31:24;2.10;99.90
10848;DHT22;5477;48.806;9.154;2024-01-27T00:33:52;2.00;99.90
10848;DHT22;5477;48.806;9.154;2024-01-27T00:36:21;1.90;99.90
10848;DHT22;5477;48.806;9.154;2024-01-27T00:38:50;1.90;99.90
10848;DHT22;5477;48.806;9.154;2024-01-27T00:41:18;1.90;99.90
10848;DHT22;5477;48.806;9.154;2024-01-27T00:43:46;1.90;99.90
10848;DHT22;5477;48.806;9.154;2024-01-27T00:46:14;2.00;99.90
10848;DHT22;5477;48.806;9.154;2024-01-27T00:48:42;2.00;99.90
10848;DHT22;5477;48.806;9.154;2024-01-27T00:51:10;2.00;99.90
10848;DHT22;5477;48.806;9.154;2024-01-27T00:53:40;2.00;99.90
10848;DHT22;5477;48.806;9.154;2024-01-27T00:56:08;2.00;99.90
10848;DHT22;5477;48.806;9.154;2024-01-27T00:58:36;2.00;99.90
10848;DHT22;5477;48.806;9.154;2024-01-27T01:01:04;2.00;99.90
10848;DHT22;5477;48.806;9.154;2024-01-27T01:03:33;1.90;99.90
10848;DHT22;5477;48.806;9.154;2024-01-27T01:06:01;1.90;99.90
10848;DHT22;5477;48.806;9.154;2024-01-27T01:08:30;1.90;99.90
10848;DHT22;5477;48.806;9.154;2024-01-27T01:11:00;1.90;99.90
10848;DHT22;5477;48.806;9.154;2024-01-27T01:13:28;1.90;99.90
10848;DHT22;5477;48.806;9.154;2024-01-27T01:15:56;1.90;99.90
10848;DHT22;5477;48.806;9.154;2024-01-27T01:18:24;1.90;99.90
10848;DHT22;5477;48.806;9.154;2024-01-27T01:20:52;1.80;99.90
10848;DHT22;5477;48.806;9.154;2024-01-27T01:23:20;1.80;99.90
10848;DHT22;5477;48.806;9.154;2024-01-27T01:25:49;1.70;99.90
10848;DHT22;5477;48.806;9.154;2024-01-27T01:28:18;1.70;99.90
10848;DHT22;5477;48.806;9.154;2024-01-27T01:30:46;1.60;99.90
10848;DHT22;5477;48.806;9.154;2024-01-27T01:33:14;1.60;99.90
10848;DHT22;5477;48.806;9.154;2024-01-27T01:35:42;1.60;99.90
10848;DHT22;5477;48.806;9.154;2024-01-27T01:38:11;1.60;99.90
10848;DHT22;5477;48.806;9.154;2024-01-27T01:40:39;1.60;99.90
10848;DHT22;5477;48.806;9.154;2024-01-27T01:43:09;1.60;99.90
10848;DHT22;5477;48.806;9.154;2024-01-27T01:45:39;1.60;99.90
10848;DHT22;5477;48.806;9.154;2024-01-27T01:48:07;1.60;99.90
10848;DHT22;5477;48.806;9.154;2024-01-27T01:50:36;1.70;99.90
10848;DHT22;5477;48.806;9.154;2024-01-27T01:53:04;1.70;99.90
10848;DHT22;5477;48.806;9.154;2024-01-27T01:55:33;1.70;99.90
10848;DHT22;5477;48.806;9.154;2024-01-27T01:58:02;1.70;99.90
10848;DHT22;5477;48.806;9.154;2024-01-27T02:00:30;1.70;99.90
10848;DHT22;5477;48.806;9.154;2024-01-27T02:02:59;1.70;99.90
10848;DHT22;5477;48.806;9.154;2024-01-27T02:05:28;1.70;99.90
10848;DHT22;5477;48.806;9.154;2024-01-27T02:07:56;1.60;99.90
10848;DHT22;5477;48.806;9.154;2024-01-27T02:10:26;1.60;99.90
10848;DHT22;5477;48.806;9.154;2024-01-27T02:12:57;1.50;99.90
10848;DHT22;5477;48.806;9.154;2024-01-27T02:15:25;1.40;99.90
10848;DHT22;5477;48.806;9.154;2024-01-27T02:17:53;1.30;99.90
10848;DHT22;5477;48.806;9.154;2024-01-27T02:20:23;1.30;99.90
10848;DHT22;5477;48.806;9.154;2024-01-27T02:22:51;1.20;99.90
10848;DHT22;5477;48.806;9.154;2024-01-27T02:25:20;1.30;99.90
10848;DHT22;5477;48.806;9.154;2024-01-27T02:27:48;1.30;99.90
10848;DHT22;5477;48.806;9.154;2024-01-27T02:30:16;1.30;99.90
10848;DHT22;5477;48.806;9.154;2024-01-27T02:32:44;1.40;99.90
10848;DHT22;5477;48.806;9.154;2024-01-27T02:35:12;1.40;99.90
10848;DHT22;5477;48.806;9.154;2024-01-27T02:37:41;1.40;99.90
10848;DHT22;5477;48.806;9.154;2024-01-27T02:40:09;1.40;99.90
10848;DHT22;5477;48.806;9.154;2024-01-27T02:42:39;1.30;99.90
10848;DHT22;5477;48.806;9.154;2024-01-27T02:45:09;1.30;99.90
10848;DHT22;5477;48.806;9.154;2024-01-27T02:47:37;1.20;99.90
10848;DHT22;5477;48.806;9.154;2024-01-27T02:50:06;1.20;99.90
10848;DHT22;5477;48.806;9.154;2024-01-27T02:52:35;1.20;99.90
10848;DHT22;5477;48.806;9.154;2024-01-27T02:55:03;1.20;99.90
10848;DHT22;5477;48.806;9.154;2024-01-27T02:57:32;1.20;99.90
10848;DHT22;5477;48.806;9.154;2024-01-27T03:00:01;1.20;99.90
10848;DHT22;5477;48.806;9.154;2024-01-27T03:02:30;1.20;99.90
10848;DHT22;5477;48.806;9.154;2024-01-27T03:04:58;1.20;99.90
10848;DHT22;5477;48.806;9.154;2024-01-27T03:07:26;1.10;99.90
10848;DHT22;5477;48.806;9.154;2024-01-27T03:09:54;1.10;99.90
10848;DHT22;5477;48.806;9.154;2024-01-27T03:12:22;1.10;99.90
10848;DHT22;5477;48.806;9.154;2024-01-27T03:14:50;1.00;99.90
10848;DHT22;5477;48.806;9.154;2024-01-27T03:17:20;1.00;99.90
10848;DHT22;5477;48.806;9.154;2024-01-27T03:19:48;1.00;99.90
10848;DHT22;5477;48.806;9.154;2024-01-27T03:22:16;1.00;99.90
10848;DHT22;5477;48.806;9.154;2024-01-27T03:24:44;1.00;99.90
10848;DHT22;5477;48.806;9.154;2024-01-27T03:27:13;1.00;99.90
10848;DHT22;5477;48.806;9.154;2024-01-27T03:29:41;1.10;99.90
10848;DHT22;5477;48.806;9.154;2024-01-27T03:32:09;1.10;99.90
10848;DHT22;5477;48.806;9.154;2024-01-27T03:34:43;1.10;99.90
10848;DHT22;5477;48.806;9.154;2024-01-27T03:37:11;1.10;99.90
10848;DHT22;5477;48.806;9.154;2024-01-27T03:39:41;1.10;99.90
10848;DHT22;5477;48.806;9.154;2024-01-27T03:42:09;1.10;99.90
10848;DHT22;5477;48.806;9.154;2024-01-27T03:44:37;1.00;99.90
10848;DHT22;5477;48.806;9.154;2024-01-27T03:47:05;1.00;99.90
10848;DHT22;5477;48.806;9.154;2024-01-27T03:49:33;1.00;99.90
10848;DHT22;5477;48.806;9.154;2024-01-27T03:52:04;1.00;99.90
10848;DHT22;5477;48.806;9.154;2024-01-27T03:54:32;0.90;99.90
10848;DHT22;5477;48.806;9.154;2024-01-27T03:57:00;0.90;99.90
10848;DHT22;5477;48.806;9.154;2024-01-27T03:59:28;1.00;99.90
10848;DHT22;5477;48.806;9.154;2024-01-27T04:01:56;1.00;99.90
10848;DHT22;5477;48.806;9.154;2024-01-27T04:04:24;1.00;99.90
10848;DHT22;5477;48.806;9.154;2024-01-27T04:06:53;1.00;99.90
10848;DHT22;5477;48.806;9.154;2024-01-27T04:09:22;0.90;99.90
10848;DHT22;5477;48.806;9.154;2024-01-27T04:11:51;0.90;99.90
10848;DHT22;5477;48.806;9.154;2024-01-27T04:14:19;0.90;99.90
10848;DHT22;5477;48.806;9.154;2024-01-27T04:16:47;0.90;99.90
10848;DHT22;5477;48.806;9.154;2024-01-27T04:19:15;0.90;99.90
10848;DHT22;5477;48.806;9.154;2024-01-27T04:21:43;0.90;99.90
10848;DHT22;5477;48.806;9.154;2024-01-27T04:24:11;0.90;99.90
10848;DHT22;5477;48.806;9.154;2024-01-27T04:26:41;0.90;99.90
10848;DHT22;5477;48.806;9.154;2024-01-27T04:29:09;0.90;99.90
10848;DHT22;5477;48.806;9.154;2024-01-27T04:31:41;0.90;99.90
10848;DHT22;5477;48.806;9.154;2024-01-27T04:34:09;0.90;99.90
10848;DHT22;5477;48.806;9.154;2024-01-27T04:36:38;0.80;99.90
10848;DHT22;5477;48.806;9.154;2024-01-27T04:39:06;0.80;99.90
10848;DHT22;5477;48.806;9.154;2024-01-27T04:41:34;0.80;99.90
10848;DHT22;5477;48.806;9.154;2024-01-27T04:44:03;0.80;99.90
10848;DHT22;5477;48.806;9.154;2024-01-27T04:46:50;0.70;99.90
10848;DHT22;5477;48.806;9.154;2024-01-27T04:49:19;0.80;99.90
10848;DHT22;5477;48.806;9.154;2024-01-27T04:51:47;0.80;99.90
10848;DHT22;5477;48.806;9.154;2024-01-27T04:54:15;0.80;99.90
10848;DHT22;5477;48.806;9.154;2024-01-27T04:56:43;0.80;99.90
10848;DHT22;5477;48.806;9.154;2024-01-27T04:59:13;0.70;99.90
10848;DHT22;5477;48.806;9.154;2024-01-27T05:01:44;0.70;99.90
10848;DHT22;5477;48.806;9.154;2024-01-27T05:04:24;0.70;99.90
10848;DHT22;5477;48.806;9.154;2024-01-27T05:07:10;0.70;99.90
10848;DHT22;5477;48.806;9.154;2024-01-27T05:09:38;0.60;99.90
10848;DHT22;5477;48.806;9.154;2024-01-27T05:12:06;0.60;99.90
10848;DHT22;5477;48.806;9.154;2024-01-27T05:14:36;0.50;99.90
10848;DHT22;5477;48.806;9.154;2024-01-27T05:17:04;0.50;99.90
10848;DHT22;5477;48.806;9.154;2024-01-27T05:19:32;0.40;99.90
10848;DHT22;5477;48.806;9.154;2024-01-27T05:22:00;0.40;99.90
10848;DHT22;5477;48.806;9.154;2024-01-27T05:24:28;0.40;99.90
10848;DHT22;5477;48.806;9.154;2024-01-27T05:26:57;0.30;99.90
10848;DHT22;5477;48.806;9.154;2024-01-27T05:29:27;0.30;99.90
10848;DHT22;5477;48.806;9.154;2024-01-27T05:31:56;0.30;99.90
10848;DHT22;5477;48.806;9.154;2024-01-27T05:34:24;0.20;99.90
10848;DHT22;5477;48.806;9.154;2024-01-27T05:36:52;0.20;99.90
10848;DHT22;5477;48.806;9.154;2024-01-27T05:39:21;0.20;99.90
10848;DHT22;5477;48.806;9.154;2024-01-27T05:41:49;0.20;99.90
10848;DHT22;5477;48.806;9.154;2024-01-27T05:44:17;0.20;99.90
10848;DHT22;5477;48.806;9.154;2024-01-27T05:46:45;0.20;99.90
10848;DHT22;5477;48.806;9.154;2024-01-27T05:49:14;0.10;99.90
10848;DHT22;5477;48.806;9.154;2024-01-27T05:51:43;0.10;99.90
10848;DHT22;5477;48.806;9.154;2024-01-27T05:54:11;0.10;99.90
10848;DHT22;5477;48.806;9.154;2024-01-27T05:56:41;0.10;99.90
10848;DHT22;5477;48.806;9.154;2024-01-27T05:59:09;0.10;99.90
10848;DHT22;5477;48.806;9.154;2024-01-27T06:01:38;0.10;99.90
10848;DHT22;5477;48.806;9.154;2024-01-27T06:04:07;0.10;99.90
10848;DHT22;5477;48.806;9.154;2024-01-27T06:06:39;0.20;99.90
10848;DHT22;5477;48.806;9.154;2024-01-27T06:09:07;0.30;99.90
10848;DHT22;5477;48.806;9.154;2024-01-27T06:11:38;0.40;99.90
10848;DHT22;5477;48.806;9.154;2024-01-27T06:14:06;0.40;99.90
10848;DHT22;5477;48.806;9.154;2024-01-27T06:16:34;0.50;99.90
10848;DHT22;5477;48.806;9.154;2024-01-27T06:19:02;0.40;99.90
10848;DHT22;5477;48.806;9.154;2024-01-27T06:21:31;0.30;99.90
10848;DHT22;5477;48.806;9.154;2024-01-27T06:24:00;0.20;99.90
10848;DHT22;5477;48.806;9.154;2024-01-27T06:26:28;0.20;99.90
10848;DHT22;5477;48.806;9.154;2024-01-27T06:28:56;0.20;99.90
10848;DHT22;5477;48.806;9.154;2024-01-27T06:31:24;0.20;99.90
10848;DHT22;5477;48.806;9.154;2024-01-27T06:33:52;0.20;99.90
10848;DHT22;5477;48.806;9.154;2024-01-27T06:36:20;0.20;99.90
10848;DHT22;5477;48.806;9.154;2024-01-27T06:38:51;0.10;99.90
10848;DHT22;5477;48.806;9.154;2024-01-27T06:41:20;0.00;99.90
10848;DHT22;5477;48.806;9.154;2024-01-27T06:43:48;0.00;99.90
10848;DHT22;5477;48.806;9.154;2024-01-27T06:46:16;-0.10;99.90
10848;DHT22;5477;48.806;9.154;2024-01-27T06:48:44;-0.10;99.90
10848;DHT22;5477;48.806;9.154;2024-01-27T06:51:13;-0.10;99.90
10848;DHT22;5477;48.806;9.154;2024-01-27T06:53:41;-0.20;99.90
10848;DHT22;5477;48.806;9.154;2024-01-27T06:56:09;-0.20;99.90
10848;DHT22;5477;48.806;9.154;2024-01-27T06:58:38;-0.20;99.90
10848;DHT22;5477;48.806;9.154;2024-01-27T07:01:07;-0.30;99.90
10848;DHT22;5477;48.806;9.154;2024-01-27T07:03:36;-0.20;99.90
10848;DHT22;5477;48.806;9.154;2024-01-27T07:06:06;-0.30;99.90
10848;DHT22;5477;48.806;9.154;2024-01-27T07:08:34;-0.30;99.90
10848;DHT22;5477;48.806;9.154;2024-01-27T07:11:04;-0.20;99.90
10848;DHT22;5477;48.806;9.154;2024-01-27T07:13:33;-0.20;99.90
10848;DHT22;5477;48.806;9.154;2024-01-27T07:16:02;-0.20;99.90
10848;DHT22;5477;48.806;9.154;2024-01-27T07:18:30;-0.10;99.90
10848;DHT22;5477;48.806;9.154;2024-01-27T07:21:02;-0.10;99.90
10848;DHT22;5477;48.806;9.154;2024-01-27T07:23:34;-0.20;99.90
10848;DHT22;5477;48.806;9.154;2024-01-27T07:26:03;-0.20;99.90
10848;DHT22;5477;48.806;9.154;2024-01-27T07:28:31;-0.20;99.90
10848;DHT22;5477;48.806;9.154;2024-01-27T07:30:59;-0.30;99.90
10848;DHT22;5477;48.806;9.154;2024-01-27T07:33:28;-0.20;99.90
10848;DHT22;5477;48.806;9.154;2024-01-27T07:35:57;-0.10;99.90
10848;DHT22;5477;48.806;9.154;2024-01-27T07:38:25;0.00;99.90
10848;DHT22;5477;48.806;9.154;2024-01-27T07:40:53;0.00;99.90
10848;DHT22;5477;48.806;9.154;2024-01-27T07:43:21;0.10;99.90
10848;DHT22;5477;48.806;9.154;2024-01-27T07:45:49;0.10;99.90
10848;DHT22;5477;48.806;9.154;2024-01-27T07:48:19;0.20;99.90
10848;DHT22;5477;48.806;9.154;2024-01-27T07:50:49;0.20;99.90
10848;DHT22;5477;48.806;9.154;2024-01-27T07:53:17;0.30;99.90
10848;DHT22;5477;48.806;9.154;2024-01-27T07:55:45;0.30;99.90
10848;DHT22;5477;48.806;9.154;2024-01-27T07:58:13;0.40;99.90
10848;DHT22;5477;48.806;9.154;2024-01-27T08:00:41;0.50;99.90
10848;DHT22;5477;48.806;9.154;2024-01-27T08:03:09;0.60;99.90
10848;DHT22;5477;48.806;9.154;2024-01-27T08:05:38;0.70;99.90
10848;DHT22;5477;48.806;9.154;2024-01-27T08:08:07;0.70;99.90
10848;DHT22;5477;48.806;9.154;2024-01-27T08:10:35;0.80;99.90
10848;DHT22;5477;48.806;9.154;2024-01-27T08:13:03;0.90;99.90
10848;DHT22;5477;48.806;9.154;2024-01-27T08:15:31;1.00;99.90
10848;DHT22;5477;48.806;9.154;2024-01-27T08:17:59;1.20;99.90
10848;DHT22;5477;48.806;9.154;2024-01-27T08:20:28;1.30;99.90
10848;DHT22;5477;48.806;9.154;2024-01-27T08:22:56;1.40;99.90
10848;DHT22;5477;48.806;9.154;2024-01-27T08:25:25;1.60;99.90
10848;DHT22;5477;48.806;9.154;2024-01-27T08:27:53;1.80;99.90
10848;DHT22;5477;48.806;9.154;2024-01-27T08:30:21;2.00;99.90
10848;DHT22;5477;48.806;9.154;2024-01-27T08:32:49;2.20;99.90
10848;DHT22;5477;48.806;9.154;2024-01-27T08:35:17;2.40;99.90
10848;DHT22;5477;48.806;9.154;2024-01-27T08:37:45;2.60;99.90
10848;DHT22;5477;48.806;9.154;2024-01-27T08:40:13;2.70;99.90
10848;DHT22;5477;48.806;9.154;2024-01-27T08:42:43;2.90;99.90
10848;DHT22;5477;48.806;9.154;2024-01-27T08:45:11;3.00;99.90
10848;DHT22;5477;48.806;9.154;2024-01-27T08:47:39;3.20;99.90
10848;DHT22;5477;48.806;9.154;2024-01-27T08:50:08;3.30;99.90
10848;DHT22;5477;48.806;9.154;2024-01-27T08:52:37;3.40;99.90
10848;DHT22;5477;48.806;9.154;2024-01-27T08:55:07;3.50;99.90
10848;DHT22;5477;48.806;9.154;2024-01-27T08:57:35;3.50;99.90
10848;DHT22;5477;48.806;9.154;2024-01-27T09:00:06;3.60;99.90
10848;DHT22;5477;48.806;9.154;2024-01-27T09:02:34;3.60;99.90
10848;DHT22;5477;48.806;9.154;2024-01-27T09:05:02;3.60;99.90
10848;DHT22;5477;48.806;9.154;2024-01-27T09:07:30;3.60;99.90
10848;DHT22;5477;48.806;9.154;2024-01-27T09:09:58;3.70;99.90
10848;DHT22;5477;48.806;9.154;2024-01-27T09:12:26;3.80;99.90
10848;DHT22;5477;48.806;9.154;2024-01-27T09:14:55;3.90;99.90
10848;DHT22;5477;48.806;9.154;2024-01-27T09:17:24;3.90;99.90
10848;DHT22;5477;48.806;9.154;2024-01-27T09:19:52;3.90;99.90
10848;DHT22;5477;48.806;9.154;2024-01-27T09:22:21;4.10;99.90
10848;DHT22;5477;48.806;9.154;2024-01-27T09:24:50;4.20;99.90
10848;DHT22;5477;48.806;9.154;2024-01-27T09:27:18;4.40;99.90
10848;DHT22;5477;48.806;9.154;2024-01-27T09:29:47;4.50;99.90
10848;DHT22;5477;48.806;9.154;2024-01-27T09:32:15;4.50;99.90
10848;DHT22;5477;48.806;9.154;2024-01-27T09:34:44;4.60;99.90
10848;DHT22;5477;48.806;9.154;2024-01-27T09:37:12;4.80;99.90
10848;DHT22;5477;48.806;9.154;2024-01-27T09:39:40;5.00;99.90
10848;DHT22;5477;48.806;9.154;2024-01-27T09:42:13;5.10;99.90
10848;DHT22;5477;48.806;9.154;2024-01-27T09:44:43;5.30;99.90
10848;DHT22;5477;48.806;9.154;2024-01-27T09:47:12;5.60;99.90
10848;DHT22;5477;48.806;9.154;2024-01-27T09:49:41;5.70;99.90
10848;DHT22;5477;48.806;9.154;2024-01-27T09:52:11;5.80;99.90
10848;DHT22;5477;48.806;9.154;2024-01-27T09:54:40;5.80;99.90
10848;DHT22;5477;48.806;9.154;2024-01-27T09:57:09;5.90;99.90
10848;DHT22;5477;48.806;9.154;2024-01-27T09:59:41;5.90;99.90
10848;DHT22;5477;48.806;9.154;2024-01-27T10:02:11;6.00;99.90
10848;DHT22;5477;48.806;9.154;2024-01-27T10:04:41;6.10;99.90
10848;DHT22;5477;48.806;9.154;2024-01-27T10:07:11;6.20;99.90
10848;DHT22;5477;48.806;9.154;2024-01-27T10:09:41;6.30;99.90
10848;DHT22;5477;48.806;9.154;2024-01-27T10:12:10;6.40;99.90
10848;DHT22;5477;48.806;9.154;2024-01-27T10:14:40;6.50;99.90
10848;DHT22;5477;48.806;9.154;2024-01-27T10:17:11;6.50;99.90
10848;DHT22;5477;48.806;9.154;2024-01-27T10:19:39;6.60;99.90
10848;DHT22;5477;48.806;9.154;2024-01-27T10:22:12;6.80;99.90
10848;DHT22;5477;48.806;9.154;2024-01-27T10:24:41;7.10;99.90
10848;DHT22;5477;48.806;9.154;2024-01-27T10:27:10;7.40;99.90
10848;DHT22;5477;48.806;9.154;2024-01-27T10:29:38;7.60;99.90
10848;DHT22;5477;48.806;9.154;2024-01-27T10:32:09;8.00;99.90
10848;DHT22;5477;48.806;9.154;2024-01-27T10:34:37;8.20;99.90
10848;DHT22;5477;48.806;9.154;2024-01-27T10:37:06;8.30;99.90
10848;DHT22;5477;48.806;9.154;2024-01-27T10:39:35;8.50;99.90
10848;DHT22;5477;48.806;9.154;2024-01-27T10:42:03;8.60;99.90
10848;DHT22;5477;48.806;9.154;2024-01-27T10:44:35;8.60;99.90
10848;DHT22;5477;48.806;9.154;2024-01-27T10:47:05;8.80;99.90
10848;DHT22;5477;48.806;9.154;2024-01-27T10:49:37;8.90;99.90
10848;DHT22;5477;48.806;9.154;2024-01-27T10:52:11;8.90;99.90
10848;DHT22;5477;48.806;9.154;2024-01-27T10:54:41;8.90;99.90
10848;DHT22;5477;48.806;9.154;2024-01-27T10:57:11;9.10;99.90
10848;DHT22;5477;48.806;9.154;2024-01-27T10:59:40;9.50;99.90
10848;DHT22;5477;48.806;9.154;2024-01-27T11:02:12;9.80;99.90
10848;DHT22;5477;48.806;9.154;2024-01-27T11:04:42;10.00;99.90
10848;DHT22;5477;48.806;9.154;2024-01-27T11:07:11;10.10;99.90
10848;DHT22;5477;48.806;9.154;2024-01-27T11:09:42;10.40;99.90
10848;DHT22;5477;48.806;9.154;2024-01-27T11:12:11;10.60;99.90
10848;DHT22;5477;48.806;9.154;2024-01-27T11:14:40;11.00;99.90
10848;DHT22;5477;48.806;9.154;2024-01-27T11:17:09;11.30;99.90
10848;DHT22;5477;48.806;9.154;2024-01-27T11:19:39;11.30;99.90
10848;DHT22;5477;48.806;9.154;2024-01-27T11:22:07;11.40;99.90
10848;DHT22;5477;48.806;9.154;2024-01-27T11:24:35;11.50;99.90
10848;DHT22;5477;48.806;9.154;2024-01-27T11:27:05;11.90;99.90
10848;DHT22;5477;48.806;9.154;2024-01-27T11:29:35;12.00;99.90
10848;DHT22;5477;48.806;9.154;2024-01-27T11:32:03;12.10;99.90
10848;DHT22;5477;48.806;9.154;2024-01-27T11:34:42;11.80;99.90
10848;DHT22;5477;48.806;9.154;2024-01-27T11:37:15;11.70;99.90
10848;DHT22;5477;48.806;9.154;2024-01-27T11:39:43;11.90;99.90
10848;DHT22;5477;48.806;9.154;2024-01-27T11:42:13;12.20;99.90
10848;DHT22;5477;48.806;9.154;2024-01-27T11:44:42;12.50;99.90
10848;DHT22;5477;48.806;9.154;2024-01-27T11:47:15;13.00;99.90
10848;DHT22;5477;48.806;9.154;2024-01-27T11:49:44;13.10;99.10
10848;DHT22;5477;48.806;9.154;2024-01-27T11:52:18;13.30;98.90
10848;DHT22;5477;48.806;9.154;2024-01-27T11:54:46;13.50;97.90
10848;DHT22;5477;48.806;9.154;2024-01-27T11:57:15;13.40;97.90
10848;DHT22;5477;48.806;9.154;2024-01-27T11:59:43;13.40;97.50
10848;DHT22;5477;48.806;9.154;2024-01-27T12:02:11;13.10;97.60
10848;DHT22;5477;48.806;9.154;2024-01-27T12:04:39;13.40;97.60
10848;DHT22;5477;48.806;9.154;2024-01-27T12:07:07;13.80;96.80
10848;DHT22;5477;48.806;9.154;2024-01-27T12:09:36;13.90;95.90
10848;DHT22;5477;48.806;9.154;2024-01-27T12:12:05;13.90;95.40
10848;DHT22;5477;48.806;9.154;2024-01-27T12:14:41;13.80;95.20
10848;DHT22;5477;48.806;9.154;2024-01-27T12:17:11;13.70;95.50
10848;DHT22;5477;48.806;9.154;2024-01-27T12:19:45;13.70;95.20
10848;DHT22;5477;48.806;9.154;2024-01-27T12:22:21;13.60;94.90
10848;DHT22;5477;48.806;9.154;2024-01-27T12:24:49;13.40;95.30
10848;DHT22;5477;48.806;9.154;2024-01-27T12:27:18;12.90;95.70
10848;DHT22;5477;48.806;9.154;2024-01-27T12:29:48;12.40;96.70
10848;DHT22;5477;48.806;9.154;2024-01-27T12:32:17;12.00;97.00
10848;DHT22;5477;48.806;9.154;2024-01-27T12:34:45;11.40;97.40
10848;DHT22;5477;48.806;9.154;2024-01-27T12:37:15;10.90;98.70
10848;DHT22;5477;48.806;9.154;2024-01-27T12:39:43;10.50;99.90
10848;DHT22;5477;48.806;9.154;2024-01-27T12:42:12;10.40;99.90
10848;DHT22;5477;48.806;9.154;2024-01-27T12:44:40;10.10;99.90
10848;DHT22;5477;48.806;9.154;2024-01-27T12:47:10;9.90;99.90
10848;DHT22;5477;48.806;9.154;2024-01-27T12:49:40;9.60;99.90
10848;DHT22;5477;48.806;9.154;2024-01-27T12:52:08;9.50;99.90
10848;DHT22;5477;48.806;9.154;2024-01-27T12:54:36;9.50;99.90
10848;DHT22;5477;48.806;9.154;2024-01-27T12:57:05;9.30;99.90
10848;DHT22;5477;48.806;9.154;2024-01-27T12:59:34;9.30;99.90
10848;DHT22;5477;48.806;9.154;2024-01-27T13:02:02;9.20;99.90
10848;DHT22;5477;48.806;9.154;2024-01-27T13:04:32;9.20;99.90
10848;DHT22;5477;48.806;9.154;2024-01-27T13:07:00;9.10;99.90
10848;DHT22;5477;48.806;9.154;2024-01-27T13:09:28;9.00;99.90
10848;DHT22;5477;48.806;9.154;2024-01-27T13:11:56;8.90;99.90
10848;DHT22;5477;48.806;9.154;2024-01-27T13:14:24;8.90;99.90
10848;DHT22;5477;48.806;9.154;2024-01-27T13:16:52;8.80;99.90
10848;DHT22;5477;48.806;9.154;2024-01-27T13:19:21;8.70;99.90
10848;DHT22;5477;48.806;9.154;2024-01-27T13:21:51;8.70;99.90
10848;DHT22;5477;48.806;9.154;2024-01-27T13:24:19;8.70;99.90
10848;DHT22;5477;48.806;9.154;2024-01-27T13:26:47;8.60;99.90
10848;DHT22;5477;48.806;9.154;2024-01-27T13:29:15;8.60;99.90
10848;DHT22;5477;48.806;9.154;2024-01-27T13:31:44;8.60;99.90
10848;DHT22;5477;48.806;9.154;2024-01-27T13:34:12;8.50;99.90
10848;DHT22;5477;48.806;9.154;2024-01-27T13:36:41;8.50;99.90
10848;DHT22;5477;48.806;9.154;2024-01-27T13:39:11;8.40;99.90
10848;DHT22;5477;48.806;9.154;2024-01-27T13:41:39;8.40;99.90
10848;DHT22;5477;48.806;9.154;2024-01-27T13:44:08;8.30;99.90
10848;DHT22;5477;48.806;9.154;2024-01-27T13:46:36;8.30;99.90
10848;DHT22;5477;48.806;9.154;2024-01-27T13:49:05;8.30;99.90
10848;DHT22;5477;48.806;9.154;2024-01-27T13:51:33;8.30;99.90
10848;DHT22;5477;48.806;9.154;2024-01-27T13:54:01;8.30;99.40
10848;DHT22;5477;48.806;9.154;2024-01-27T13:56:31;8.20;99.40
10848;DHT22;5477;48.806;9.154;2024-01-27T13:58:59;8.30;98.80
10848;DHT22;5477;48.806;9.154;2024-01-27T14:01:27;8.30;98.50
10848;DHT22;5477;48.806;9.154;2024-01-27T14:03:55;8.30;98.40
10848;DHT22;5477;48.806;9.154;2024-01-27T14:06:24;8.30;97.20
10848;DHT22;5477;48.806;9.154;2024-01-27T14:08:52;8.30;97.60
10848;DHT22;5477;48.806;9.154;2024-01-27T14:11:21;8.30;97.70
10848;DHT22;5477;48.806;9.154;2024-01-27T14:13:50;8.30;98.50
10848;DHT22;5477;48.806;9.154;2024-01-27T14:16:18;8.20;99.20
10848;DHT22;5477;48.806;9.154;2024-01-27T14:18:47;8.20;99.70
10848;DHT22;5477;48.806;9.154;2024-01-27T14:21:16;8.20;99.90
10848;DHT22;5477;48.806;9.154;2024-01-27T14:23:44;8.30;99.90
10848;DHT22;5477;48.806;9.154;2024-01-27T14:26:12;8.20;99.90
10848;DHT22;5477;48.806;9.154;2024-01-27T14:28:42;8.20;99.90
10848;DHT22;5477;48.806;9.154;2024-01-27T14:31:13;8.20;99.90
10848;DHT22;5477;48.806;9.154;2024-01-27T14:33:42;8.20;99.90
10848;DHT22;5477;48.806;9.154;2024-01-27T14:36:10;8.30;99.90
10848;DHT22;5477;48.806;9.154;2024-01-27T14:38:38;8.20;99.90
10848;DHT22;5477;48.806;9.154;2024-01-27T14:41:07;8.20;99.90
10848;DHT22;5477;48.806;9.154;2024-01-27T14:43:36;8.10;99.90
10848;DHT22;5477;48.806;9.154;2024-01-27T14:46:05;8.00;99.90
10848;DHT22;5477;48.806;9.154;2024-01-27T14:48:35;8.00;99.90
10848;DHT22;5477;48.806;9.154;2024-01-27T14:51:03;8.00;99.90
10848;DHT22;5477;48.806;9.154;2024-01-27T14:53:33;8.00;99.90
10848;DHT22;5477;48.806;9.154;2024-01-27T14:56:01;8.00;99.90
10848;DHT22;5477;48.806;9.154;2024-01-27T14:58:30;8.00;99.90
10848;DHT22;5477;48.806;9.154;2024-01-27T15:00:58;8.00;99.90
10848;DHT22;5477;48.806;9.154;2024-01-27T15:03:26;8.00;99.90
10848;DHT22;5477;48.806;9.154;2024-01-27T15:05:56;7.90;99.90
10848;DHT22;5477;48.806;9.154;2024-01-27T15:08:26;7.90;99.90
10848;DHT22;5477;48.806;9.154;2024-01-27T15:10:54;8.00;99.90
10848;DHT22;5477;48.806;9.154;2024-01-27T15:13:22;8.00;99.90
10848;DHT22;5477;48.806;9.154;2024-01-27T15:15:51;8.00;99.90
10848;DHT22;5477;48.806;9.154;2024-01-27T15:18:19;8.10;99.90
10848;DHT22;5477;48.806;9.154;2024-01-27T15:20:49;8.10;99.90
10848;DHT22;5477;48.806;9.154;2024-01-27T15:23:18;8.10;99.90
10848;DHT22;5477;48.806;9.154;2024-01-27T15:25:51;8.10;99.90
10848;DHT22;5477;48.806;9.154;2024-01-27T15:28:19;8.10;99.90
10848;DHT22;5477;48.806;9.154;2024-01-27T15:30:47;8.10;99.90
10848;DHT22;5477;48.806;9.154;2024-01-27T15:33:16;8.10;99.90
10848;DHT22;5477;48.806;9.154;2024-01-27T15:35:44;8.10;99.90
10848;DHT22;5477;48.806;9.154;2024-01-27T15:38:12;8.00;99.90
10848;DHT22;5477;48.806;9.154;2024-01-27T15:40:42;7.90;99.90
10848;DHT22;5477;48.806;9.154;2024-01-27T15:43:10;7.90;99.90
10848;DHT22;5477;48.806;9.154;2024-01-27T15:45:38;7.80;99.90
10848;DHT22;5477;48.806;9.154;2024-01-27T15:48:06;7.80;99.90
10848;DHT22;5477;48.806;9.154;2024-01-27T15:50:37;7.80;99.90
10848;DHT22;5477;48.806;9.154;2024-01-27T15:53:05;7.70;99.90
10848;DHT22;5477;48.806;9.154;2024-01-27T15:55:35;7.70;99.90
10848;DHT22;5477;48.806;9.154;2024-01-27T15:58:04;7.70;99.90
10848;DHT22;5477;48.806;9.154;2024-01-27T16:00:32;7.60;99.90
10848;DHT22;5477;48.806;9.154;2024-01-27T16:03:01;7.60;99.90
10848;DHT22;5477;48.806;9.154;2024-01-27T16:05:29;7.50;99.90
10848;DHT22;5477;48.806;9.154;2024-01-27T16:07:57;7.50;99.90
10848;DHT22;5477;48.806;9.154;2024-01-27T16:10:25;7.40;99.90